Time;durP1;ratioP1;P1;durP2;ratioP2;P2;SDS_P1;SDS_P2;PMS_P1;PMS_P2;Temp;Humidity;BMP_temperature;BMP_pressure;BME280_temperature;BME280_humidity;BME280_pressure;Samples;Min_cycle;Max_cycle;Signal;HPM_P1;HPM_P2
2024/01/29 00:01:21;;;;;;;5.60;4.97;;;7.80;99.90;;;;;;5078423;28;20418;-41
2024/01/29 00:03:47;;;;;;;6.93;5.20;;;7.80;99.90;;;;;;5078112;28;20418;-40
2024/01/29 00:06:13;;;;;;;6.27;5.30;;;7.70;99.90;;;;;;5095809;28;20438;-41
2024/01/29 00:08:38;;;;;;;5.30;4.70;;;7.70;99.90;;;;;;5061330;28;20261;-42
2024/01/29 00:11:05;;;;;;;4.93;4.43;;;7.70;99.90;;;;;;5077667;28;20191;-40
2024/01/29 00:13:31;;;;;;;5.70;4.50;;;7.60;99.90;;;;;;5081343;28;20184;-41
2024/01/29 00:15:58;;;;;;;5.57;5.00;;;7.60;99.90;;;;;;5100283;28;20773;-40
2024/01/29 00:18:24;;;;;;;5.80;4.43;;;7.60;99.90;;;;;;5082696;28;20437;-43
2024/01/29 00:20:49;;;;;;;6.33;4.93;;;7.60;99.90;;;;;;5100726;28;20451;-41
2024/01/29 00:23:16;;;;;;;4.90;4.40;;;7.50;99.90;;;;;;5082491;28;20658;-42
2024/01/29 00:25:41;;;;;;;4.83;4.40;;;7.50;99.90;;;;;;5099885;28;20242;-42
2024/01/29 00:28:07;;;;;;;6.20;4.93;;;7.50;99.90;;;;;;5082057;28;20403;-42
2024/01/29 00:30:32;;;;;;;5.53;5.03;;;7.50;99.90;;;;;;5100076;28;20266;-40
2024/01/29 00:32:58;;;;;;;6.00;4.63;;;7.50;99.90;;;;;;5099723;28;20177;-42
2024/01/29 00:35:24;;;;;;;4.67;4.27;;;7.50;99.90;;;;;;5082697;28;20180;-41
2024/01/29 00:37:49;;;;;;;4.47;4.07;;;7.50;99.90;;;;;;5100523;28;20180;-40
2024/01/29 00:40:15;;;;;;;4.90;4.47;;;7.50;99.90;;;;;;5082387;28;20184;-42
2024/01/29 00:42:41;;;;;;;3.77;3.37;;;7.50;99.90;;;;;;5082254;28;20201;-41
2024/01/29 00:45:07;;;;;;;4.40;4.00;;;7.50;99.90;;;;;;5099843;28;20180;-41
2024/01/29 00:47:32;;;;;;;4.67;3.87;;;7.50;99.90;;;;;;5099589;28;20569;-41
2024/01/29 00:49:58;;;;;;;4.13;3.73;;;7.50;99.90;;;;;;5099498;28;20418;-41
2024/01/29 00:52:24;;;;;;;4.67;3.63;;;7.50;99.90;;;;;;5080972;28;20450;-42
2024/01/29 00:54:50;;;;;;;5.17;3.60;;;7.50;99.90;;;;;;5100221;28;20177;-41
2024/01/29 00:57:15;;;;;;;3.70;3.30;;;7.40;99.90;;;;;;5100015;28;20770;-41
2024/01/29 00:59:42;;;;;;;4.20;3.40;;;7.40;99.90;;;;;;5099932;28;20507;-41
2024/01/29 01:02:08;;;;;;;4.50;4.10;;;7.40;99.90;;;;;;5099689;28;20319;-42
2024/01/29 01:04:33;;;;;;;4.40;3.67;;;7.40;99.90;;;;;;5065473;28;20479;-43
2024/01/29 01:06:59;;;;;;;4.07;3.70;;;7.40;99.90;;;;;;5099202;28;20165;-40
2024/01/29 01:09:24;;;;;;;3.53;3.23;;;7.40;99.90;;;;;;5099625;28;20245;-40
2024/01/29 01:11:50;;;;;;;4.20;3.67;;;7.40;99.90;;;;;;5099224;28;20263;-42
2024/01/29 01:14:15;;;;;;;3.83;3.50;;;7.40;99.90;;;;;;5099884;28;20271;-42
2024/01/29 01:16:41;;;;;;;3.37;3.00;;;7.40;99.90;;;;;;5099854;28;20181;-44
2024/01/29 01:19:07;;;;;;;4.93;3.27;;;7.40;99.90;;;;;;5099647;28;20461;-41
2024/01/29 01:21:32;;;;;;;3.10;2.80;;;7.40;99.90;;;;;;5099407;28;20263;-41
2024/01/29 01:23:58;;;;;;;3.80;3.40;;;7.40;99.90;;;;;;5099762;28;20200;-42
2024/01/29 01:26:24;;;;;;;3.47;3.17;;;7.40;99.90;;;;;;5081566;28;20267;-41
2024/01/29 01:28:50;;;;;;;4.50;2.80;;;7.40;99.90;;;;;;5099299;28;20248;-40
2024/01/29 01:31:16;;;;;;;4.10;3.43;;;7.40;99.90;;;;;;5099206;28;20824;-41
2024/01/29 01:33:41;;;;;;;3.50;3.17;;;7.40;99.90;;;;;;5099112;28;20179;-41
2024/01/29 01:36:07;;;;;;;3.20;2.90;;;7.40;99.90;;;;;;5081051;28;20237;-41
2024/01/29 01:38:32;;;;;;;3.90;3.50;;;7.40;99.90;;;;;;5099029;28;20180;-42
2024/01/29 01:40:58;;;;;;;4.53;3.23;;;7.40;99.90;;;;;;5099507;28;20176;-42
2024/01/29 01:43:24;;;;;;;4.00;3.43;;;7.40;99.90;;;;;;5098571;28;20214;-41
2024/01/29 01:46:10;;;;;;;3.80;3.07;;;7.40;99.90;;;;;;5079111;28;20226;-41
2024/01/29 01:48:35;;;;;;;3.17;2.60;;;7.40;99.90;;;;;;5097283;28;20487;-41
2024/01/29 01:51:02;;;;;;;3.00;2.70;;;7.40;99.90;;;;;;5080083;28;20519;-43
2024/01/29 01:53:31;;;;;;;3.47;2.80;;;7.30;99.90;;;;;;5079615;28;20221;-42
2024/01/29 01:55:58;;;;;;;4.33;3.60;;;7.30;99.90;;;;;;5079284;28;20418;-42
2024/01/29 01:58:24;;;;;;;4.40;3.00;;;7.30;99.90;;;;;;5079872;28;20411;-41
2024/01/29 02:00:50;;;;;;;3.33;2.80;;;7.30;99.90;;;;;;5098744;28;20407;-41
2024/01/29 02:03:15;;;;;;;3.20;2.77;;;7.30;99.90;;;;;;5098714;28;20466;-41
2024/01/29 02:05:41;;;;;;;4.43;3.40;;;7.30;99.90;;;;;;5097856;28;20236;-40
2024/01/29 02:08:07;;;;;;;2.87;2.60;;;7.30;99.90;;;;;;5098276;28;20550;-45
2024/01/29 02:10:33;;;;;;;1.60;1.00;;;7.30;99.90;;;;;;5097838;28;20499;-44
2024/01/29 02:12:59;;;;;;;1.70;1.13;;;8.30;1.00;;;;;;5098236;28;20267;-42
2024/01/29 02:15:25;;;;;;;2.27;2.07;;;9.50;1.00;;;;;;5098757;28;20458;-43
2024/01/29 02:17:50;;;;;;;2.73;2.33;;;9.90;1.00;;;;;;5098008;28;21029;-42
2024/01/29 02:20:17;;;;;;;3.77;2.67;;;9.80;1.00;;;;;;5098865;28;20462;-41
2024/01/29 02:22:44;;;;;;;3.30;2.80;;;9.60;99.90;;;;;;5098186;28;20207;-41
2024/01/29 02:25:09;;;;;;;3.07;2.77;;;9.40;1.00;;;;;;5098387;28;20413;-42
2024/01/29 02:27:36;;;;;;;3.37;2.40;;;9.10;99.90;;;;;;5097434;28;20431;-41
2024/01/29 02:30:02;;;;;;;2.83;2.53;;;8.90;1.00;;;;;;5097226;28;20176;-41
2024/01/29 02:32:27;;;;;;;4.20;2.93;;;8.70;1.00;;;;;;5063008;28;20518;-40
2024/01/29 02:34:53;;;;;;;2.90;2.60;;;8.50;99.90;;;;;;5097807;28;20531;-41
2024/01/29 02:37:18;;;;;;;4.10;2.97;;;8.30;26.30;;;;;;5079995;28;20573;-43
2024/01/29 02:39:45;;;;;;;4.40;3.50;;;7.90;1.00;;;;;;5097885;28;20267;-44
2024/01/29 02:42:11;;;;;;;2.60;2.40;;;8.20;1.00;;;;;;5097477;28;20315;-41
2024/01/29 02:44:36;;;;;;;3.13;2.60;;;8.00;1.00;;;;;;5079716;28;20835;-42
2024/01/29 02:47:02;;;;;;;3.90;3.13;;;7.90;1.00;;;;;;5097518;28;20181;-41
2024/01/29 02:49:29;;;;;;;3.10;2.80;;;7.80;1.00;;;;;;5097670;28;20176;-43
2024/01/29 02:51:54;;;;;;;3.57;2.53;;;7.80;1.00;;;;;;5097709;28;20183;-42
2024/01/29 02:54:20;;;;;;;3.37;3.07;;;7.70;1.00;;;;;;5097691;28;20669;-41
2024/01/29 02:56:45;;;;;;;3.20;2.87;;;7.60;1.00;;;;;;5097578;28;20271;-42
2024/01/29 02:59:11;;;;;;;3.20;2.43;;;7.60;1.00;;;;;;5097425;28;20345;-43
2024/01/29 03:01:37;;;;;;;3.40;2.90;;;7.50;1.00;;;;;;5097292;28;20191;-40
2024/01/29 03:04:02;;;;;;;4.03;3.00;;;7.50;1.00;;;;;;5097171;28;20226;-41
2024/01/29 03:06:28;;;;;;;3.13;2.83;;;7.40;1.00;;;;;;5097352;28;20529;-42
2024/01/29 03:08:53;;;;;;;3.23;2.70;;;7.40;1.00;;;;;;5097667;28;20181;-41
2024/01/29 03:11:19;;;;;;;3.50;3.20;;;7.40;1.00;;;;;;5097146;28;20207;-41
2024/01/29 03:13:46;;;;;;;2.93;2.73;;;7.30;1.00;;;;;;5097491;28;20180;-42
2024/01/29 03:16:14;;;;;;;3.27;2.87;;;7.30;99.90;;;;;;5097423;28;20169;-41
2024/01/29 03:18:39;;;;;;;2.57;2.30;;;7.20;99.90;;;;;;5097722;28;20521;-41
2024/01/29 03:21:05;;;;;;;4.20;3.10;;;7.20;99.90;;;;;;5097950;28;20784;-42
2024/01/29 03:23:30;;;;;;;3.03;2.37;;;7.20;99.90;;;;;;5096789;28;20621;-42
2024/01/29 03:25:56;;;;;;;3.30;2.80;;;7.20;99.90;;;;;;5077574;28;20500;-40
2024/01/29 03:28:21;;;;;;;3.30;2.60;;;7.20;99.90;;;;;;5095452;28;20169;-41
2024/01/29 03:30:47;;;;;;;3.70;2.83;;;7.10;99.90;;;;;;5078175;28;20169;-40
2024/01/29 03:33:12;;;;;;;2.93;2.70;;;7.10;99.90;;;;;;5097183;28;20180;-41
2024/01/29 03:35:38;;;;;;;3.03;2.70;;;7.10;99.90;;;;;;5097695;28;20203;-40
2024/01/29 03:38:04;;;;;;;2.70;2.50;;;7.10;99.90;;;;;;5097151;28;20524;-41
2024/01/29 03:40:35;;;;;;;4.50;3.13;;;7.00;99.90;;;;;;5097000;28;20204;-41
2024/01/29 03:43:01;;;;;;;3.87;3.10;;;7.00;99.90;;;;;;5096993;28;20208;-40
2024/01/29 03:45:26;;;;;;;3.33;3.03;;;7.00;99.90;;;;;;5097401;28;20807;-42
2024/01/29 03:47:52;;;;;;;5.50;3.67;;;7.00;99.90;;;;;;5081230;28;20192;-42
2024/01/29 03:50:17;;;;;;;3.63;2.70;;;6.90;99.90;;;;;;5100609;28;20172;-41
2024/01/29 03:52:44;;;;;;;3.23;2.80;;;6.90;99.90;;;;;;5100798;28;20172;-41
2024/01/29 03:55:10;;;;;;;4.30;3.07;;;6.90;99.90;;;;;;5100649;28;20191;-41
2024/01/29 03:57:38;;;;;;;3.43;3.13;;;6.90;99.90;;;;;;5100611;28;20852;-42
2024/01/29 04:00:07;;;;;;;2.93;2.73;;;6.90;99.90;;;;;;5100739;28;20822;-39
2024/01/29 04:02:34;;;;;;;3.17;2.53;;;6.90;99.90;;;;;;5100973;28;20477;-39
2024/01/29 04:05:00;;;;;;;3.20;2.90;;;6.90;99.90;;;;;;5078144;28;20473;-41
2024/01/29 04:07:27;;;;;;;3.10;2.77;;;6.90;99.90;;;;;;5078597;28;20423;-40
2024/01/29 04:09:53;;;;;;;2.97;2.67;;;6.90;99.90;;;;;;5078417;28;20288;-41
2024/01/29 04:12:18;;;;;;;3.00;2.70;;;6.80;99.90;;;;;;5079455;28;20853;-43
2024/01/29 04:14:44;;;;;;;3.20;2.90;;;6.80;99.90;;;;;;5079579;28;20187;-41
2024/01/29 04:17:12;;;;;;;3.03;2.73;;;6.80;99.90;;;;;;5078522;28;20173;-41
2024/01/29 04:19:38;;;;;;;3.10;2.50;;;6.80;99.90;;;;;;5080060;28;20415;-42
2024/01/29 04:22:04;;;;;;;4.40;2.87;;;6.80;99.90;;;;;;5079540;28;20470;-40
2024/01/29 04:24:30;;;;;;;4.10;3.00;;;6.70;99.90;;;;;;5078777;28;20418;-40
2024/01/29 04:26:56;;;;;;;3.07;2.77;;;6.70;99.90;;;;;;5078216;28;20457;-41
2024/01/29 04:29:22;;;;;;;3.33;3.00;;;6.70;99.90;;;;;;5078649;28;20465;-41
2024/01/29 04:31:48;;;;;;;3.17;2.87;;;6.70;99.90;;;;;;5079342;28;20404;-41
2024/01/29 04:34:13;;;;;;;4.10;3.43;;;6.70;99.90;;;;;;5077632;28;20189;-41
2024/01/29 04:36:39;;;;;;;3.53;2.83;;;6.70;99.90;;;;;;5077524;28;20183;-42
2024/01/29 04:39:04;;;;;;;3.20;2.47;;;6.70;99.90;;;;;;5077748;28;20177;-40
2024/01/29 04:41:30;;;;;;;2.60;2.40;;;6.70;99.90;;;;;;5078253;28;20182;-40
2024/01/29 04:43:56;;;;;;;3.50;2.97;;;6.70;99.90;;;;;;5078319;28;20173;-41
2024/01/29 04:46:23;;;;;;;3.03;2.40;;;6.80;99.90;;;;;;5079051;28;20518;-40
2024/01/29 04:48:48;;;;;;;2.77;2.50;;;6.80;99.90;;;;;;5078073;28;20177;-45
2024/01/29 04:51:14;;;;;;;2.63;2.43;;;6.80;99.90;;;;;;5079815;28;20435;-42
2024/01/29 04:53:40;;;;;;;3.60;2.60;;;6.80;99.90;;;;;;5078896;28;20270;-40
2024/01/29 04:56:06;;;;;;;3.60;2.00;;;6.80;99.90;;;;;;5077673;28;20177;-40
2024/01/29 04:58:32;;;;;;;2.30;2.10;;;6.80;99.90;;;;;;5077389;28;20181;-39
2024/01/29 05:01:01;;;;;;;3.10;2.60;;;6.80;99.90;;;;;;5078749;28;20437;-43
2024/01/29 05:03:27;;;;;;;3.10;2.47;;;6.80;99.90;;;;;;5079207;28;20305;-41
2024/01/29 05:05:52;;;;;;;2.67;2.43;;;6.80;99.90;;;;;;5097401;28;21058;-42
2024/01/29 05:08:21;;;;;;;3.50;2.87;;;6.80;99.90;;;;;;5080051;28;20529;-41
2024/01/29 05:10:46;;;;;;;2.90;2.70;;;6.80;99.90;;;;;;5062628;28;20863;-41
2024/01/29 05:13:12;;;;;;;3.87;2.70;;;6.80;99.90;;;;;;5079046;28;20470;-42
2024/01/29 05:15:38;;;;;;;2.80;2.60;;;6.80;99.90;;;;;;5097469;28;20168;-43
2024/01/29 05:18:04;;;;;;;2.87;2.33;;;6.80;99.90;;;;;;5097599;28;20176;-41
2024/01/29 05:20:30;;;;;;;2.27;1.97;;;6.90;99.90;;;;;;5098595;28;20168;-41
2024/01/29 05:22:56;;;;;;;2.77;2.20;;;6.90;99.90;;;;;;5078869;28;20505;-41
2024/01/29 05:25:22;;;;;;;2.60;2.20;;;6.90;99.90;;;;;;5096799;28;20263;-43
2024/01/29 05:27:47;;;;;;;2.80;1.93;;;6.90;99.90;;;;;;5096975;28;20200;-40
2024/01/29 05:30:14;;;;;;;2.50;2.17;;;6.90;99.90;;;;;;5098111;28;20436;-40
2024/01/29 05:32:39;;;;;;;3.30;2.00;;;6.90;99.90;;;;;;5098615;28;20208;-41
2024/01/29 05:35:05;;;;;;;2.40;1.90;;;6.90;99.90;;;;;;5098163;28;20514;-41
2024/01/29 05:37:32;;;;;;;2.70;2.30;;;6.90;99.90;;;;;;5096926;28;20199;-45
2024/01/29 05:39:58;;;;;;;2.57;1.97;;;6.90;99.90;;;;;;5097633;28;20430;-41
2024/01/29 05:42:23;;;;;;;2.60;2.03;;;6.90;99.90;;;;;;5097595;28;20757;-42
2024/01/29 05:44:49;;;;;;;3.30;2.47;;;6.80;99.90;;;;;;5096676;28;20191;-42
2024/01/29 05:47:16;;;;;;;4.10;2.63;;;6.80;99.90;;;;;;5096137;28;20245;-40
2024/01/29 05:49:41;;;;;;;2.67;2.40;;;6.80;99.90;;;;;;5077483;28;20419;-41
2024/01/29 05:52:07;;;;;;;2.80;2.50;;;6.80;99.90;;;;;;5094759;28;20469;-41
2024/01/29 05:54:32;;;;;;;2.70;2.50;;;6.80;99.90;;;;;;5059356;28;20184;-41
2024/01/29 05:56:58;;;;;;;2.90;2.43;;;6.80;99.90;;;;;;5094180;28;20788;-41
2024/01/29 05:59:24;;;;;;;3.77;2.70;;;6.80;99.90;;;;;;5093989;28;20160;-42
2024/01/29 06:01:50;;;;;;;4.27;2.23;;;6.80;99.90;;;;;;5096246;28;20487;-40
2024/01/29 06:04:15;;;;;;;3.33;2.73;;;6.80;99.90;;;;;;5096803;28;20236;-43
2024/01/29 06:06:43;;;;;;;2.80;2.40;;;6.80;99.90;;;;;;5095514;28;20180;-40
2024/01/29 06:09:10;;;;;;;2.60;2.10;;;6.80;99.90;;;;;;5093043;28;20550;-40
2024/01/29 06:11:39;;;;;;;3.27;2.27;;;6.70;99.90;;;;;;5095327;28;20465;-42
2024/01/29 06:14:04;;;;;;;2.50;2.13;;;6.70;99.90;;;;;;5094890;28;20525;-41
2024/01/29 06:16:30;;;;;;;3.00;2.43;;;6.70;99.90;;;;;;5074936;28;20426;-40
2024/01/29 06:18:56;;;;;;;2.33;2.13;;;6.70;99.90;;;;;;5094728;28;20184;-43
2024/01/29 06:21:22;;;;;;;2.60;2.10;;;6.70;99.90;;;;;;5096207;28;20885;-41
2024/01/29 06:23:49;;;;;;;2.50;2.30;;;6.60;99.90;;;;;;5095786;28;20445;-42
2024/01/29 06:26:16;;;;;;;3.10;2.80;;;6.60;99.90;;;;;;5093990;28;20421;-41
2024/01/29 06:28:41;;;;;;;2.30;2.10;;;6.60;99.90;;;;;;5094749;28;20764;-42
2024/01/29 06:31:07;;;;;;;2.83;2.53;;;6.60;99.90;;;;;;5093899;28;20462;-43
2024/01/29 06:33:38;;;;;;;3.07;2.07;;;6.60;99.90;;;;;;5097575;28;20208;-41
2024/01/29 06:36:04;;;;;;;3.50;2.67;;;6.60;99.90;;;;;;5096152;28;20465;-41
2024/01/29 06:38:30;;;;;;;4.13;3.67;;;6.60;99.90;;;;;;5094175;28;20807;-41
2024/01/29 06:40:57;;;;;;;5.80;4.47;;;6.50;99.90;;;;;;5093840;28;20410;-41
2024/01/29 06:43:22;;;;;;;5.43;3.97;;;6.50;99.90;;;;;;5094740;28;20196;-41
2024/01/29 06:45:48;;;;;;;4.90;4.07;;;6.50;99.90;;;;;;5094152;28;20439;-40
2024/01/29 06:48:14;;;;;;;5.00;3.90;;;6.50;99.90;;;;;;5095846;28;20209;-41
2024/01/29 06:50:40;;;;;;;3.60;3.27;;;6.40;99.90;;;;;;5096796;28;20180;-42
2024/01/29 06:53:06;;;;;;;4.80;3.90;;;6.40;99.90;;;;;;5095952;28;20200;-42
2024/01/29 06:55:31;;;;;;;3.80;3.20;;;6.40;99.90;;;;;;5093113;28;20498;-40
2024/01/29 06:57:57;;;;;;;4.23;3.60;;;6.40;99.90;;;;;;5097030;28;20191;-40
2024/01/29 07:00:24;;;;;;;5.20;4.60;;;6.40;99.90;;;;;;5092978;28;20871;-40
2024/01/29 07:02:49;;;;;;;4.40;4.00;;;6.40;99.90;;;;;;5093879;28;20195;-41
2024/01/29 07:05:16;;;;;;;4.90;4.00;;;6.40;99.90;;;;;;5093328;28;20467;-42
2024/01/29 07:07:42;;;;;;;6.13;4.87;;;6.40;99.90;;;;;;5094181;28;20172;-41
2024/01/29 07:10:07;;;;;;;5.07;4.57;;;6.40;99.90;;;;;;5093883;28;20524;-43
2024/01/29 07:12:33;;;;;;;5.67;4.30;;;6.40;99.90;;;;;;5093769;28;20322;-43
2024/01/29 07:14:59;;;;;;;5.47;4.90;;;6.40;99.90;;;;;;5093390;28;20181;-41
2024/01/29 07:17:24;;;;;;;5.90;5.20;;;6.40;99.90;;;;;;5093193;28;20207;-40
2024/01/29 07:19:52;;;;;;;5.40;4.90;;;6.40;99.90;;;;;;5093857;28;20176;-43
2024/01/29 07:22:19;;;;;;;6.67;5.57;;;6.40;99.90;;;;;;5098396;28;20173;-41
2024/01/29 07:24:48;;;;;;;6.20;4.93;;;6.40;99.90;;;;;;5096436;28;20430;-43
2024/01/29 07:27:17;;;;;;;5.53;4.93;;;6.50;99.90;;;;;;5098896;28;20519;-41
2024/01/29 07:29:43;;;;;;;5.77;4.93;;;6.50;99.90;;;;;;5099545;28;20544;-42
2024/01/29 07:32:09;;;;;;;5.30;4.40;;;6.60;99.90;;;;;;5100924;28;20469;-41
2024/01/29 07:34:36;;;;;;;4.80;4.30;;;6.70;99.90;;;;;;5101883;28;20434;-42
2024/01/29 07:37:02;;;;;;;5.20;4.63;;;6.80;99.90;;;;;;5084975;28;20188;-43
2024/01/29 07:39:28;;;;;;;7.43;5.40;;;6.90;99.90;;;;;;5102968;28;20427;-40
2024/01/29 07:41:54;;;;;;;7.50;6.07;;;7.10;99.90;;;;;;5082833;28;20438;-40
2024/01/29 07:44:20;;;;;;;8.30;5.23;;;7.20;99.90;;;;;;5100361;28;20784;-41
2024/01/29 07:46:45;;;;;;;7.40;5.50;;;7.40;99.90;;;;;;5100093;28;20196;-42
2024/01/29 07:49:12;;;;;;;6.50;5.87;;;7.50;99.90;;;;;;5099258;28;20422;-42
2024/01/29 07:51:40;;;;;;;6.90;6.20;;;7.50;99.90;;;;;;5097025;28;20617;-41
2024/01/29 07:54:07;;;;;;;5.73;5.20;;;7.70;99.90;;;;;;5063690;28;20750;-43
2024/01/29 07:56:33;;;;;;;6.90;5.43;;;7.80;99.90;;;;;;5098619;28;20686;-43
2024/01/29 07:58:58;;;;;;;6.57;5.93;;;8.10;99.90;;;;;;5096650;28;20528;-44
2024/01/29 08:01:24;;;;;;;7.63;6.30;;;8.30;99.90;;;;;;5098472;28;20172;-41
2024/01/29 08:03:50;;;;;;;7.17;5.63;;;8.60;99.90;;;;;;5098637;28;20584;-43
2024/01/29 08:06:15;;;;;;;6.70;5.63;;;8.90;99.90;;;;;;5079020;28;20624;-42
2024/01/29 08:08:41;;;;;;;6.43;5.03;;;9.30;99.90;;;;;;5098067;28;20207;-41
2024/01/29 08:11:07;;;;;;;6.17;5.30;;;9.70;99.90;;;;;;5099925;28;20275;-41
2024/01/29 08:13:32;;;;;;;5.47;4.97;;;10.10;99.90;;;;;;5081743;28;20222;-42
2024/01/29 08:15:59;;;;;;;6.40;4.60;;;10.50;99.90;;;;;;5100108;28;20399;-42
2024/01/29 08:18:25;;;;;;;6.17;4.17;;;10.90;99.90;;;;;;5099567;28;20180;-42
2024/01/29 08:20:50;;;;;;;6.60;5.00;;;11.30;99.90;;;;;;5097430;28;20616;-42
2024/01/29 08:23:16;;;;;;;6.00;5.40;;;11.70;99.90;;;;;;5097400;28;20215;-42
2024/01/29 08:25:42;;;;;;;4.47;2.80;;;12.10;99.90;;;;;;5064803;28;20561;-43
2024/01/29 08:28:08;;;;;;;4.03;1.93;;;12.60;1.00;;;;;;5099467;28;20438;-41
2024/01/29 08:30:33;;;;;;;3.63;2.27;;;13.50;1.00;;;;;;5100084;28;20263;-42
2024/01/29 08:32:59;;;;;;;3.30;2.60;;;14.50;99.90;;;;;;5097624;28;20624;-40
2024/01/29 08:35:24;;;;;;;3.30;2.57;;;15.30;25.50;;;;;;5099196;28;20165;-43
2024/01/29 08:37:50;;;;;;;5.13;2.87;;;16.10;1.00;;;;;;5098772;28;20173;-42
2024/01/29 08:40:16;;;;;;;3.27;2.87;;;16.70;99.90;;;;;;5100291;28;20172;-45
2024/01/29 08:42:41;;;;;;;5.30;2.97;;;17.20;1.00;;;;;;5082809;28;20225;-42
2024/01/29 08:45:07;;;;;;;5.23;2.90;;;17.70;1.00;;;;;;5098824;28;20511;-44
2024/01/29 08:47:33;;;;;;;4.43;3.40;;;18.00;99.90;;;;;;5064997;28;20531;-42
2024/01/29 08:49:58;;;;;;;4.00;3.60;;;18.40;1.00;;;;;;5083148;28;20529;-42
2024/01/29 08:52:24;;;;;;;3.87;3.53;;;18.70;1.00;;;;;;5100046;28;20275;-43
2024/01/29 08:54:50;;;;;;;5.10;3.60;;;19.00;1.00;;;;;;5099239;28;20238;-39
2024/01/29 08:57:16;;;;;;;3.87;3.07;;;19.50;1.00;;;;;;5096988;28;20173;-41
2024/01/29 08:59:41;;;;;;;4.30;3.70;;;19.80;99.90;;;;;;5097210;28;20429;-41
2024/01/29 09:02:08;;;;;;;6.60;4.07;;;20.10;99.90;;;;;;5097285;28;20168;-43
2024/01/29 09:04:33;;;;;;;4.27;3.57;;;20.40;99.90;;;;;;5098365;28;20671;-41
2024/01/29 09:06:59;;;;;;;4.07;3.67;;;20.70;99.90;;;;;;5098341;28;20423;-41
2024/01/29 09:09:24;;;;;;;4.23;3.83;;;21.00;99.90;;;;;;5096855;28;20554;-40
2024/01/29 09:11:51;;;;;;;5.23;4.20;;;21.30;99.90;;;;;;5063954;28;20168;-43
2024/01/29 09:14:17;;;;;;;7.13;4.07;;;21.60;99.00;;;;;;5097819;28;20173;-41
2024/01/29 09:16:43;;;;;;;4.77;4.07;;;21.80;91.20;;;;;;5097780;28;20522;-41
2024/01/29 09:19:09;;;;;;;4.40;4.00;;;22.00;82.90;;;;;;5097835;28;20521;-42
2024/01/29 09:21:36;;;;;;;4.30;3.90;;;22.30;88.50;;;;;;5080416;28;20554;-43
2024/01/29 09:24:03;;;;;;;4.20;3.67;;;22.60;76.20;;;;;;5063283;28;20415;-40
2024/01/29 09:26:29;;;;;;;4.30;3.90;;;22.90;45.30;;;;;;5097640;28;20911;-43
2024/01/29 09:28:55;;;;;;;7.40;4.10;;;23.10;22.60;;;;;;5098814;28;20567;-42
2024/01/29 09:31:20;;;;;;;4.20;3.80;;;23.30;10.40;;;;;;5067065;28;20177;-40
2024/01/29 09:33:46;;;;;;;4.83;3.40;;;23.50;8.00;;;;;;5063930;28;20216;-42
2024/01/29 09:36:12;;;;;;;6.57;4.37;;;23.70;10.30;;;;;;5099285;28;20173;-43
2024/01/29 09:38:37;;;;;;;4.03;3.63;;;24.10;4.70;;;;;;5097684;28;20172;-39
2024/01/29 09:41:04;;;;;;;4.40;4.00;;;24.30;1.00;;;;;;5101174;28;20433;-40
2024/01/29 09:43:29;;;;;;;4.93;4.43;;;24.70;18.10;;;;;;5096782;28;20183;-43
2024/01/29 09:45:56;;;;;;;5.53;4.30;;;25.00;45.00;;;;;;5077642;28;20499;-41
2024/01/29 09:48:22;;;;;;;4.63;4.20;;;25.30;49.60;;;;;;5097586;28;20165;-42
2024/01/29 09:50:49;;;;;;;4.50;3.93;;;25.60;85.50;;;;;;5098604;28;20531;-44
2024/01/29 09:53:19;;;;;;;5.10;4.60;;;25.90;61.50;;;;;;5078521;28;20578;-42
2024/01/29 09:55:45;;;;;;;5.10;4.60;;;26.20;45.20;;;;;;5097561;28;20430;-43
2024/01/29 09:58:11;;;;;;;6.43;4.33;;;26.40;25.60;;;;;;5098635;28;20430;-42
2024/01/29 10:00:36;;;;;;;6.90;3.90;;;26.70;21.80;;;;;;5098243;28;20175;-40
2024/01/29 10:03:05;;;;;;;4.67;4.27;;;26.90;1.00;;;;;;5096448;28;20181;-41
2024/01/29 10:05:31;;;;;;;4.60;4.13;;;27.20;1.00;;;;;;5094385;28;20228;-44
2024/01/29 10:07:58;;;;;;;5.17;3.80;;;27.40;4.10;;;;;;5093464;28;20433;-43
2024/01/29 10:10:27;;;;;;;3.60;3.13;;;27.60;29.80;;;;;;5096661;28;20434;-42
2024/01/29 10:13:04;;;;;;;4.07;3.30;;;27.90;34.30;;;;;;5095525;28;20470;-41
2024/01/29 10:15:31;;;;;;;4.00;2.87;;;28.40;99.90;;;;;;5096477;28;20478;-46
2024/01/29 10:17:56;;;;;;;6.47;3.00;;;28.70;41.20;;;;;;5078899;28;20399;-44
2024/01/29 10:20:22;;;;;;;3.23;2.93;;;28.90;92.20;;;;;;5095730;28;20426;-41
2024/01/29 10:22:48;;;;;;;3.33;2.43;;;29.30;22.80;;;;;;5096101;28;20643;-41
2024/01/29 10:25:15;;;;;;;3.00;2.80;;;29.40;21.60;;;;;;5096934;28;20192;-43
2024/01/29 10:27:41;;;;;;;3.00;2.70;;;29.60;22.20;;;;;;5097838;28;20438;-42
2024/01/29 10:30:07;;;;;;;2.63;2.40;;;29.80;33.10;;;;;;5096630;28;20768;-41
2024/01/29 10:32:34;;;;;;;2.73;2.50;;;30.10;55.30;;;;;;5077706;28;20215;-45
2024/01/29 10:35:00;;;;;;;2.70;2.50;;;30.30;37.40;;;;;;5078287;28;20430;-43
2024/01/29 10:37:26;;;;;;;4.97;2.83;;;30.50;54.10;;;;;;5078576;28;20833;-42
2024/01/29 10:39:54;;;;;;;2.73;2.27;;;30.70;95.50;;;;;;5076406;28;20316;-43
2024/01/29 10:42:27;;;;;;;2.50;2.30;;;30.80;99.00;;;;;;5094488;28;20451;-43
2024/01/29 10:44:53;;;;;;;6.87;2.30;;;30.90;99.90;;;;;;5061525;28;20397;-42
2024/01/29 10:47:29;;;;;;;2.60;2.40;;;31.00;99.90;;;;;;5096613;28;20400;-43
2024/01/29 10:49:56;;;;;;;2.73;2.43;;;31.10;99.90;;;;;;5078459;28;20766;-43
2024/01/29 10:52:23;;;;;;;5.57;3.43;;;31.30;99.90;;;;;;5077455;28;20430;-44
2024/01/29 10:54:49;;;;;;;2.63;2.23;;;31.30;99.90;;;;;;5077371;28;20468;-42
2024/01/29 10:57:15;;;;;;;4.33;2.83;;;31.40;99.90;;;;;;5078660;28;20540;-42
2024/01/29 10:59:43;;;;;;;3.67;2.70;;;31.60;99.90;;;;;;5096979;28;20483;-43
2024/01/29 11:02:15;;;;;;;3.13;2.43;;;32.00;99.90;;;;;;5097208;28;20462;-43
2024/01/29 11:04:41;;;;;;;5.43;2.87;;;32.60;99.90;;;;;;5060566;28;20513;-43
2024/01/29 11:07:11;;;;;;;5.20;2.73;;;;;;;;;;5077243;28;20434;-41
2024/01/29 11:09:42;;;;;;;3.13;2.17;;;33.00;99.90;;;;;;5096198;28;20173;-43
2024/01/29 11:12:09;;;;;;;2.97;2.20;;;33.50;99.90;;;;;;5095699;28;20472;-43
2024/01/29 11:14:35;;;;;;;3.30;2.27;;;33.70;99.90;;;;;;5078488;28;20427;-47
2024/01/29 11:17:01;;;;;;;4.90;2.10;;;33.90;1.00;;;;;;5095848;28;20882;-43
2024/01/29 11:19:33;;;;;;;2.13;1.77;;;;;;;;;;5077764;28;20181;-44
2024/01/29 11:22:03;;;;;;;3.10;2.20;;;34.20;60.00;;;;;;5095245;28;20176;-44
2024/01/29 11:24:28;;;;;;;4.60;2.10;;;34.50;48.10;;;;;;5096821;28;20828;-54
2024/01/29 11:27:05;;;;;;;4.57;2.27;;;;;;;;;;5093860;28;20392;-44
2024/01/29 11:29:34;;;;;;;2.70;1.90;;;34.60;99.90;;;;;;5092692;28;20213;-43
2024/01/29 11:32:01;;;;;;;2.43;2.23;;;34.70;99.90;;;;;;5094780;28;20435;-46
2024/01/29 11:34:30;;;;;;;4.23;2.73;;;34.80;99.90;;;;;;5095490;28;20397;-48
2024/01/29 11:36:55;;;;;;;3.07;2.87;;;34.80;13.90;;;;;;5094156;28;20606;-46
2024/01/29 11:39:30;;;;;;;2.90;2.60;;;34.80;14.00;;;;;;5093245;28;20385;-44
2024/01/29 11:41:56;;;;;;;3.60;2.80;;;34.60;11.20;;;;;;5091725;28;20258;-44
2024/01/29 11:44:22;;;;;;;4.07;2.60;;;34.60;1.00;;;;;;5073817;28;20480;-45
2024/01/29 11:46:49;;;;;;;2.60;2.40;;;34.50;1.00;;;;;;5075191;28;20447;-46
2024/01/29 11:49:27;;;;;;;5.07;2.30;;;34.10;1.00;;;;;;5074112;28;20396;-44
2024/01/29 11:51:57;;;;;;;2.40;2.20;;;34.10;1.00;;;;;;5092016;28;20400;-43
2024/01/29 11:54:24;;;;;;;3.20;2.40;;;33.70;1.00;;;;;;5093063;28;20471;-44
2024/01/29 11:56:50;;;;;;;5.30;2.07;;;33.70;1.00;;;;;;5093680;28;20673;-46
2024/01/29 11:59:15;;;;;;;2.27;2.07;;;33.90;1.00;;;;;;5094700;28;20422;-44
2024/01/29 12:01:43;;;;;;;2.43;2.23;;;34.10;1.00;;;;;;5094421;28;20200;-46
2024/01/29 12:04:10;;;;;;;2.20;2.00;;;34.10;1.00;;;;;;5069664;28;20272;-45
2024/01/29 12:06:36;;;;;;;2.20;2.00;;;34.20;1.00;;;;;;5070859;28;20438;-45
2024/01/29 12:09:02;;;;;;;2.63;2.10;;;34.30;1.00;;;;;;5074493;28;20442;-44
2024/01/29 12:11:28;;;;;;;2.40;2.20;;;34.20;1.00;;;;;;5075419;28;20758;-44
2024/01/29 12:13:57;;;;;;;2.13;1.87;;;34.30;1.00;;;;;;5074192;28;20834;-47
2024/01/29 12:16:24;;;;;;;2.67;2.33;;;34.30;1.00;;;;;;5074220;28;20860;-43
2024/01/29 12:18:50;;;;;;;4.83;2.27;;;34.40;1.00;;;;;;5074027;28;20417;-43
2024/01/29 12:21:16;;;;;;;2.83;2.33;;;34.20;1.00;;;;;;5073809;28;20411;-43
2024/01/29 12:23:42;;;;;;;2.70;2.50;;;34.30;1.00;;;;;;5074545;28;20236;-44
2024/01/29 12:26:08;;;;;;;4.20;2.00;;;34.30;1.00;;;;;;5074316;28;20177;-45
2024/01/29 12:28:34;;;;;;;4.33;2.40;;;34.50;1.00;;;;;;5075558;28;20527;-45
2024/01/29 12:31:05;;;;;;;4.73;3.07;;;34.60;1.00;;;;;;5076239;28;20185;-45
2024/01/29 12:33:31;;;;;;;3.43;3.13;;;34.60;1.00;;;;;;5076448;28;20405;-45
2024/01/29 12:36:13;;;;;;;3.00;2.70;;;34.60;1.00;;;;;;5076321;28;20390;-48
2024/01/29 12:38:40;;;;;;;3.50;2.90;;;34.30;1.00;;;;;;5076856;28;20423;-44
2024/01/29 12:41:06;;;;;;;2.80;2.30;;;34.30;1.00;;;;;;5074950;28;20405;-45
2024/01/29 12:43:31;;;;;;;3.73;2.67;;;34.30;1.00;;;;;;5076058;28;20825;-46
2024/01/29 12:46:10;;;;;;;4.03;2.93;;;34.30;1.00;;;;;;5076110;28;20498;-46
2024/01/29 12:48:36;;;;;;;2.63;2.30;;;34.30;1.00;;;;;;5075701;28;20169;-45
2024/01/29 12:51:02;;;;;;;3.77;2.97;;;34.20;1.00;;;;;;5076642;28;20422;-45